createdAt,value
2018-09-17T18:13:32.466Z,28.30
2018-09-17T18:16:02.117Z,19.90
2018-09-17T18:18:31.668Z,19.50
2018-09-17T18:21:01.900Z,19.30
2018-09-17T18:23:34.235Z,19.00
2018-09-17T18:26:05.989Z,18.80
2018-09-17T18:28:42.513Z,18.70
2018-09-17T18:31:11.374Z,18.50
2018-09-17T18:33:40.658Z,18.40
2018-09-17T18:36:09.399Z,18.40
2018-09-17T18:38:40.107Z,18.30
2018-09-17T18:41:11.260Z,18.10
2018-09-17T18:46:18.875Z,17.80
2018-09-17T18:48:48.215Z,17.70
2018-09-17T18:51:17.811Z,17.80
2018-09-17T18:53:46.677Z,17.70
2018-09-17T18:56:15.418Z,17.50
2018-09-17T18:58:44.362Z,17.40
2018-09-17T19:01:12.591Z,17.20
2018-09-17T19:03:40.609Z,17.20
2018-09-17T19:06:09.038Z,17.20
2018-09-17T19:08:37.226Z,17.30
2018-09-17T19:11:05.416Z,17.10
2018-09-17T19:13:33.664Z,17.00
2018-09-17T19:16:01.942Z,16.90
2018-09-17T19:18:30.176Z,17.00
2018-09-17T19:20:58.674Z,17.10
2018-09-17T19:23:32.096Z,17.10
2018-09-17T19:26:00.517Z,17.00
2018-09-17T19:28:34.071Z,16.90
2018-09-17T19:31:02.607Z,16.80
2018-09-17T19:33:31.102Z,16.60
2018-09-17T19:35:59.428Z,16.50
2018-09-17T19:38:33.021Z,16.40
2018-09-17T19:41:00.603Z,16.50
2018-09-17T19:43:28.895Z,16.60
2018-09-17T19:46:27.961Z,16.60
2018-09-17T19:48:55.688Z,16.60
2018-09-17T19:51:29.405Z,16.30
2018-09-17T19:53:58.844Z,16.00
2018-09-17T19:56:28.430Z,16.10
2018-09-17T19:59:02.532Z,16.10
2018-09-17T20:01:33.231Z,16.10
2018-09-17T20:04:07.532Z,16.00
2018-09-17T20:06:37.000Z,15.90
2018-09-17T20:09:07.963Z,15.90
2018-09-17T20:11:36.025Z,15.80
2018-09-17T20:14:03.558Z,15.80
2018-09-17T20:16:31.088Z,15.70
2018-09-17T20:18:59.207Z,15.60
2018-09-17T20:21:26.974Z,15.40
2018-09-17T20:23:54.469Z,15.40
2018-09-17T20:26:21.980Z,15.40
2018-09-17T20:28:49.579Z,15.30
2018-09-17T20:31:17.128Z,15.20
2018-09-17T20:33:45.175Z,15.20
2018-09-17T20:36:13.064Z,15.10
2018-09-17T20:38:40.656Z,15.10
2018-09-17T20:41:08.145Z,15.00
2018-09-17T20:43:35.939Z,14.90
2018-09-17T20:46:03.967Z,14.90
2018-09-17T20:48:31.724Z,15.00
2018-09-17T20:50:59.448Z,14.70
2018-09-17T20:53:27.013Z,14.90
2018-09-17T20:55:54.583Z,15.00
2018-09-17T20:58:22.068Z,15.00
2018-09-17T21:00:49.731Z,15.10
2018-09-17T21:03:17.663Z,15.00
2018-09-17T21:05:45.650Z,14.80
2018-09-17T21:08:13.143Z,14.80
2018-09-17T21:10:40.657Z,14.70
2018-09-17T21:13:08.440Z,14.80
2018-09-17T21:15:36.513Z,14.60
2018-09-17T21:18:04.010Z,14.50
2018-09-17T21:20:31.497Z,14.40
2018-09-17T21:22:59.015Z,14.30
2018-09-17T21:25:27.414Z,14.40
2018-09-17T21:27:54.965Z,14.40
2018-09-17T21:30:22.497Z,14.40
2018-09-17T21:32:50.730Z,14.30
2018-09-17T21:35:18.330Z,14.10
2018-09-17T21:37:45.777Z,14.00
2018-09-17T21:42:48.516Z,14.10
2018-09-17T21:45:19.403Z,14.10
2018-09-17T21:47:47.814Z,14.10
2018-09-17T21:50:15.319Z,14.10
2018-09-17T21:52:42.843Z,14.10
2018-09-17T21:55:10.389Z,14.10
2018-09-17T21:57:38.629Z,14.00
2018-09-17T22:00:08.501Z,14.00
2018-09-17T22:02:37.503Z,14.10
2018-09-17T22:05:07.468Z,13.90
2018-09-17T22:07:35.686Z,13.80
2018-09-17T22:10:04.109Z,13.90
2018-09-17T22:12:32.655Z,13.80
2018-09-17T22:15:01.091Z,13.70
2018-09-17T22:17:29.315Z,13.70
2018-09-17T22:19:57.557Z,13.70
2018-09-17T22:22:25.723Z,13.70
2018-09-17T22:24:53.232Z,13.50
2018-09-17T22:27:20.753Z,13.70
2018-09-17T22:29:48.995Z,13.60
2018-09-17T22:32:17.222Z,13.70
2018-09-17T22:34:45.429Z,13.70
2018-09-17T22:37:13.663Z,13.60
2018-09-17T22:39:42.826Z,13.70
2018-09-17T22:42:11.096Z,13.60
2018-09-17T22:44:39.281Z,13.50
2018-09-17T22:47:07.559Z,13.50
2018-09-17T22:49:35.790Z,13.50
2018-09-17T22:52:04.010Z,13.50
2018-09-17T22:54:32.267Z,13.50
2018-09-17T22:57:00.894Z,13.30
2018-09-17T22:59:29.542Z,13.30
